sensor_id;sensor_type;location;lat;lon;timestamp;pressure;altitude;pressure_sealevel;temperature;humidity
5413;BME280;2729;50.056;8.678;2023-03-16T00:02:09;100836.56;;;0.71;100.00
5413;BME280;2729;50.056;8.678;2023-03-16T00:04:36;100841.25;;;0.87;100.00
5413;BME280;2729;50.056;8.678;2023-03-16T00:07:07;100849.97;;;0.94;100.00
5413;BME280;2729;50.056;8.678;2023-03-16T00:09:34;100851.53;;;0.87;100.00
5413;BME280;2729;50.056;8.678;2023-03-16T00:12:01;100849.75;;;0.50;100.00
5413;BME280;2729;50.056;8.678;2023-03-16T00:14:29;100854.88;;;0.49;100.00
5413;BME280;2729;50.056;8.678;2023-03-16T00:16:55;100846.97;;;0.41;100.00
5413;BME280;2729;50.056;8.678;2023-03-16T00:19:21;100842.41;;;0.29;100.00
5413;BME280;2729;50.056;8.678;2023-03-16T00:21:48;100848.19;;;0.22;100.00
5413;BME280;2729;50.056;8.678;2023-03-16T00:24:14;100835.28;;;0.19;100.00
5413;BME280;2729;50.056;8.678;2023-03-16T00:26:44;100825.34;;;0.31;100.00
5413;BME280;2729;50.056;8.678;2023-03-16T00:29:10;100832.28;;;0.36;100.00
5413;BME280;2729;50.056;8.678;2023-03-16T00:31:38;100829.63;;;0.32;100.00
5413;BME280;2729;50.056;8.678;2023-03-16T00:34:04;100828.81;;;0.34;100.00
5413;BME280;2729;50.056;8.678;2023-03-16T00:36:30;100824.50;;;0.32;100.00
5413;BME280;2729;50.056;8.678;2023-03-16T00:38:58;100815.91;;;0.30;100.00
5413;BME280;2729;50.056;8.678;2023-03-16T00:41:24;100821.22;;;0.38;100.00
5413;BME280;2729;50.056;8.678;2023-03-16T00:43:50;100821.34;;;0.43;100.00
5413;BME280;2729;50.056;8.678;2023-03-16T00:46:19;100809.50;;;0.49;100.00
5413;BME280;2729;50.056;8.678;2023-03-16T00:48:51;100813.78;;;0.49;100.00
5413;BME280;2729;50.056;8.678;2023-03-16T00:51:17;100815.75;;;0.59;100.00
5413;BME280;2729;50.056;8.678;2023-03-16T00:53:47;100819.41;;;0.69;100.00
5413;BME280;2729;50.056;8.678;2023-03-16T00:56:14;100814.06;;;0.61;100.00
5413;BME280;2729;50.056;8.678;2023-03-16T00:58:41;100817.31;;;0.54;100.00
5413;BME280;2729;50.056;8.678;2023-03-16T01:01:17;100817.56;;;0.63;100.00
5413;BME280;2729;50.056;8.678;2023-03-16T01:03:44;100819.22;;;0.61;100.00
5413;BME280;2729;50.056;8.678;2023-03-16T01:06:13;100822.69;;;0.63;100.00
5413;BME280;2729;50.056;8.678;2023-03-16T01:08:41;100820.25;;;0.69;100.00
5413;BME280;2729;50.056;8.678;2023-03-16T01:11:10;100813.09;;;0.56;100.00
5413;BME280;2729;50.056;8.678;2023-03-16T01:13:38;100820.94;;;0.62;100.00
5413;BME280;2729;50.056;8.678;2023-03-16T01:16:05;100822.56;;;0.58;100.00
5413;BME280;2729;50.056;8.678;2023-03-16T01:18:31;100823.25;;;0.51;100.00
5413;BME280;2729;50.056;8.678;2023-03-16T01:21:09;100825.88;;;0.53;100.00
5413;BME280;2729;50.056;8.678;2023-03-16T01:23:38;100822.31;;;0.48;100.00
5413;BME280;2729;50.056;8.678;2023-03-16T01:26:05;100828.25;;;0.45;100.00
5413;BME280;2729;50.056;8.678;2023-03-16T01:28:31;100823.97;;;0.46;100.00
5413;BME280;2729;50.056;8.678;2023-03-16T01:31:04;100817.72;;;0.35;100.00
5413;BME280;2729;50.056;8.678;2023-03-16T01:33:32;100807.13;;;0.22;100.00
5413;BME280;2729;50.056;8.678;2023-03-16T01:36:02;100809.69;;;0.22;100.00
5413;BME280;2729;50.056;8.678;2023-03-16T01:38:34;100805.66;;;0.32;100.00
5413;BME280;2729;50.056;8.678;2023-03-16T01:41:00;100801.56;;;0.39;100.00
5413;BME280;2729;50.056;8.678;2023-03-16T01:43:28;100796.44;;;0.40;100.00
5413;BME280;2729;50.056;8.678;2023-03-16T01:48:40;100784.56;;;0.44;100.00
5413;BME280;2729;50.056;8.678;2023-03-16T01:51:16;100789.22;;;0.24;100.00
5413;BME280;2729;50.056;8.678;2023-03-16T01:53:48;100788.16;;;0.16;100.00
5413;BME280;2729;50.056;8.678;2023-03-16T01:56:22;100795.28;;;0.27;100.00
5413;BME280;2729;50.056;8.678;2023-03-16T01:58:52;100787.00;;;0.39;100.00
5413;BME280;2729;50.056;8.678;2023-03-16T02:01:25;100780.94;;;0.36;100.00
5413;BME280;2729;50.056;8.678;2023-03-16T02:04:04;100783.53;;;0.37;100.00
5413;BME280;2729;50.056;8.678;2023-03-16T02:06:33;100777.63;;;0.40;100.00
5413;BME280;2729;50.056;8.678;2023-03-16T02:08:59;100772.38;;;0.35;100.00
5413;BME280;2729;50.056;8.678;2023-03-16T02:11:26;100769.03;;;0.39;100.00
5413;BME280;2729;50.056;8.678;2023-03-16T02:14:09;100778.00;;;0.20;100.00
5413;BME280;2729;50.056;8.678;2023-03-16T02:16:36;100774.53;;;0.18;100.00
5413;BME280;2729;50.056;8.678;2023-03-16T02:19:05;100783.16;;;0.22;100.00
5413;BME280;2729;50.056;8.678;2023-03-16T02:24:11;100773.88;;;0.27;100.00
5413;BME280;2729;50.056;8.678;2023-03-16T02:26:43;100773.91;;;0.28;100.00
5413;BME280;2729;50.056;8.678;2023-03-16T02:29:27;100765.28;;;0.25;100.00
5413;BME280;2729;50.056;8.678;2023-03-16T02:31:57;100766.75;;;0.15;100.00
5413;BME280;2729;50.056;8.678;2023-03-16T02:34:25;100764.09;;;0.12;100.00
5413;BME280;2729;50.056;8.678;2023-03-16T02:36:52;100758.22;;;0.16;100.00
5413;BME280;2729;50.056;8.678;2023-03-16T02:39:23;100755.69;;;0.18;100.00
5413;BME280;2729;50.056;8.678;2023-03-16T02:41:49;100759.16;;;0.20;100.00
5413;BME280;2729;50.056;8.678;2023-03-16T02:44:19;100757.56;;;0.25;100.00
5413;BME280;2729;50.056;8.678;2023-03-16T02:46:53;100748.88;;;0.18;100.00
5413;BME280;2729;50.056;8.678;2023-03-16T02:49:24;100733.91;;;0.37;100.00
5413;BME280;2729;50.056;8.678;2023-03-16T02:51:52;100733.94;;;0.38;100.00
5413;BME280;2729;50.056;8.678;2023-03-16T02:54:18;100730.63;;;0.42;100.00
5413;BME280;2729;50.056;8.678;2023-03-16T02:56:44;100728.84;;;0.40;100.00
5413;BME280;2729;50.056;8.678;2023-03-16T02:59:11;100728.06;;;0.44;100.00
5413;BME280;2729;50.056;8.678;2023-03-16T03:01:37;100727.97;;;0.39;100.00
5413;BME280;2729;50.056;8.678;2023-03-16T03:04:04;100737.84;;;0.22;100.00
5413;BME280;2729;50.056;8.678;2023-03-16T03:06:31;100734.16;;;0.11;100.00
5413;BME280;2729;50.056;8.678;2023-03-16T03:08:58;100728.06;;;0.08;100.00
5413;BME280;2729;50.056;8.678;2023-03-16T03:11:24;100725.84;;;0.21;100.00
5413;BME280;2729;50.056;8.678;2023-03-16T03:13:50;100724.03;;;0.17;100.00
5413;BME280;2729;50.056;8.678;2023-03-16T03:16:21;100721.63;;;0.23;100.00
5413;BME280;2729;50.056;8.678;2023-03-16T03:18:48;100722.22;;;0.13;100.00
5413;BME280;2729;50.056;8.678;2023-03-16T03:21:14;100724.13;;;0.22;100.00
5413;BME280;2729;50.056;8.678;2023-03-16T03:23:41;100710.31;;;0.53;100.00
5413;BME280;2729;50.056;8.678;2023-03-16T03:26:12;100714.81;;;0.63;100.00
5413;BME280;2729;50.056;8.678;2023-03-16T03:28:40;100716.56;;;0.64;100.00
5413;BME280;2729;50.056;8.678;2023-03-16T03:31:11;100727.50;;;0.55;100.00
5413;BME280;2729;50.056;8.678;2023-03-16T03:33:37;100715.69;;;0.63;100.00
5413;BME280;2729;50.056;8.678;2023-03-16T03:36:04;100714.69;;;0.57;100.00
5413;BME280;2729;50.056;8.678;2023-03-16T03:38:34;100713.66;;;0.49;100.00
5413;BME280;2729;50.056;8.678;2023-03-16T03:41:00;100721.34;;;0.49;100.00
5413;BME280;2729;50.056;8.678;2023-03-16T03:43:30;100721.50;;;0.55;100.00
5413;BME280;2729;50.056;8.678;2023-03-16T03:46:00;100726.00;;;0.65;100.00
5413;BME280;2729;50.056;8.678;2023-03-16T03:48:26;100726.84;;;0.64;100.00
5413;BME280;2729;50.056;8.678;2023-03-16T03:50:54;100718.22;;;0.62;100.00
5413;BME280;2729;50.056;8.678;2023-03-16T03:53:39;100721.75;;;0.67;100.00
5413;BME280;2729;50.056;8.678;2023-03-16T03:56:19;100732.56;;;0.52;100.00
5413;BME280;2729;50.056;8.678;2023-03-16T03:58:45;100727.50;;;0.55;100.00
5413;BME280;2729;50.056;8.678;2023-03-16T04:01:16;100735.16;;;0.54;100.00
5413;BME280;2729;50.056;8.678;2023-03-16T04:03:43;100728.97;;;0.46;100.00
5413;BME280;2729;50.056;8.678;2023-03-16T04:06:09;100735.84;;;0.47;100.00
5413;BME280;2729;50.056;8.678;2023-03-16T04:08:38;100730.69;;;0.45;100.00
5413;BME280;2729;50.056;8.678;2023-03-16T04:11:08;100738.88;;;0.30;100.00
5413;BME280;2729;50.056;8.678;2023-03-16T04:13:34;100728.78;;;0.37;100.00
5413;BME280;2729;50.056;8.678;2023-03-16T04:16:00;100726.25;;;0.38;100.00
5413;BME280;2729;50.056;8.678;2023-03-16T04:18:31;100721.34;;;0.49;100.00
5413;BME280;2729;50.056;8.678;2023-03-16T04:21:05;100715.19;;;0.41;100.00
5413;BME280;2729;50.056;8.678;2023-03-16T04:23:32;100718.25;;;0.26;100.00
5413;BME280;2729;50.056;8.678;2023-03-16T04:26:00;100720.56;;;0.15;100.00
5413;BME280;2729;50.056;8.678;2023-03-16T04:28:26;100715.44;;;0.15;100.00
5413;BME280;2729;50.056;8.678;2023-03-16T04:30:52;100701.66;;;0.12;100.00
5413;BME280;2729;50.056;8.678;2023-03-16T04:33:30;100696.88;;;0.27;100.00
5413;BME280;2729;50.056;8.678;2023-03-16T04:35:57;100695.66;;;0.11;100.00
5413;BME280;2729;50.056;8.678;2023-03-16T04:38:31;100699.84;;;0.08;100.00
5413;BME280;2729;50.056;8.678;2023-03-16T04:48:27;100688.53;;;0.36;100.00
5413;BME280;2729;50.056;8.678;2023-03-16T04:50:54;100689.28;;;0.31;100.00
5413;BME280;2729;50.056;8.678;2023-03-16T04:53:20;100684.03;;;0.25;100.00
5413;BME280;2729;50.056;8.678;2023-03-16T04:55:52;100688.47;;;0.32;100.00
5413;BME280;2729;50.056;8.678;2023-03-16T04:58:20;100684.91;;;0.27;100.00
5413;BME280;2729;50.056;8.678;2023-03-16T05:00:53;100684.91;;;0.27;100.00
5413;BME280;2729;50.056;8.678;2023-03-16T05:03:24;100692.50;;;0.23;100.00
5413;BME280;2729;50.056;8.678;2023-03-16T05:05:50;100692.56;;;0.24;100.00
5413;BME280;2729;50.056;8.678;2023-03-16T05:08:17;100694.31;;;0.27;100.00
5413;BME280;2729;50.056;8.678;2023-03-16T05:10:45;100696.34;;;0.04;100.00
5413;BME280;2729;50.056;8.678;2023-03-16T05:13:13;100690.75;;;0.20;100.00
5413;BME280;2729;50.056;8.678;2023-03-16T05:15:39;100690.88;;;0.26;100.00
5413;BME280;2729;50.056;8.678;2023-03-16T05:18:22;100691.00;;;0.31;100.00
5413;BME280;2729;50.056;8.678;2023-03-16T05:20:50;100688.09;;;0.17;100.00
5413;BME280;2729;50.056;8.678;2023-03-16T05:23:16;100699.75;;;0.03;100.00
5413;BME280;2729;50.056;8.678;2023-03-16T05:25:47;100697.00;;;-0.03;100.00
5413;BME280;2729;50.056;8.678;2023-03-16T05:28:15;100694.28;;;-0.09;100.00
5413;BME280;2729;50.056;8.678;2023-03-16T05:30:56;100703.00;;;-0.03;100.00
5413;BME280;2729;50.056;8.678;2023-03-16T05:33:25;100698.63;;;-0.07;100.00
5413;BME280;2729;50.056;8.678;2023-03-16T05:35:58;100703.25;;;0.07;100.00
5413;BME280;2729;50.056;8.678;2023-03-16T05:38:24;100687.19;;;0.15;100.00
5413;BME280;2729;50.056;8.678;2023-03-16T05:40:52;100694.44;;;0.31;100.00
5413;BME280;2729;50.056;8.678;2023-03-16T05:43:40;100693.50;;;0.28;100.00
5413;BME280;2729;50.056;8.678;2023-03-16T05:46:06;100700.03;;;0.15;100.00
5413;BME280;2729;50.056;8.678;2023-03-16T05:48:33;100689.00;;;0.19;100.00
5413;BME280;2729;50.056;8.678;2023-03-16T05:51:00;100684.88;;;0.26;100.00
5413;BME280;2729;50.056;8.678;2023-03-16T05:53:31;100677.16;;;0.24;100.00
5413;BME280;2729;50.056;8.678;2023-03-16T05:56:04;100682.53;;;0.35;100.00
5413;BME280;2729;50.056;8.678;2023-03-16T05:58:33;100675.53;;;0.28;100.00
5413;BME280;2729;50.056;8.678;2023-03-16T06:01:00;100676.56;;;0.36;100.00
5413;BME280;2729;50.056;8.678;2023-03-16T06:03:29;100682.69;;;0.43;100.00
5413;BME280;2729;50.056;8.678;2023-03-16T06:05:57;100674.44;;;0.56;100.00
5413;BME280;2729;50.056;8.678;2023-03-16T06:08:31;100678.03;;;0.64;100.00
5413;BME280;2729;50.056;8.678;2023-03-16T06:11:06;100674.88;;;0.76;100.00
5413;BME280;2729;50.056;8.678;2023-03-16T06:13:33;100673.88;;;0.69;100.00
5413;BME280;2729;50.056;8.678;2023-03-16T06:16:00;100669.72;;;0.76;100.00
5413;BME280;2729;50.056;8.678;2023-03-16T06:18:26;100665.16;;;0.62;100.00
5413;BME280;2729;50.056;8.678;2023-03-16T06:20:52;100666.22;;;0.72;100.00
5413;BME280;2729;50.056;8.678;2023-03-16T06:23:18;100664.28;;;0.62;100.00
5413;BME280;2729;50.056;8.678;2023-03-16T06:25:47;100676.25;;;0.60;100.00
5413;BME280;2729;50.056;8.678;2023-03-16T06:28:13;100670.66;;;0.79;100.00
5413;BME280;2729;50.056;8.678;2023-03-16T06:30:40;100676.63;;;0.78;100.00
5413;BME280;2729;50.056;8.678;2023-03-16T06:33:06;100682.84;;;0.89;100.00
5413;BME280;2729;50.056;8.678;2023-03-16T06:35:32;100684.97;;;1.09;100.00
5413;BME280;2729;50.056;8.678;2023-03-16T06:38:09;100689.75;;;0.92;100.00
5413;BME280;2729;50.056;8.678;2023-03-16T06:40:55;100689.66;;;0.87;100.00
5413;BME280;2729;50.056;8.678;2023-03-16T06:43:22;100688.16;;;0.97;100.00
5413;BME280;2729;50.056;8.678;2023-03-16T06:45:49;100696.03;;;1.06;100.00
5413;BME280;2729;50.056;8.678;2023-03-16T06:48:15;100690.44;;;1.25;100.00
5413;BME280;2729;50.056;8.678;2023-03-16T06:50:44;100690.63;;;1.36;100.00
5413;BME280;2729;50.056;8.678;2023-03-16T06:53:11;100699.34;;;1.44;100.00
5413;BME280;2729;50.056;8.678;2023-03-16T06:55:37;100698.59;;;1.50;100.00
5413;BME280;2729;50.056;8.678;2023-03-16T06:58:03;100691.88;;;1.56;100.00
5413;BME280;2729;50.056;8.678;2023-03-16T07:00:29;100690.44;;;1.72;100.00
5413;BME280;2729;50.056;8.678;2023-03-16T07:02:56;100681.28;;;1.89;100.00
5413;BME280;2729;50.056;8.678;2023-03-16T07:05:22;100686.53;;;1.94;100.00
5413;BME280;2729;50.056;8.678;2023-03-16T07:07:49;100689.63;;;2.28;100.00
5413;BME280;2729;50.056;8.678;2023-03-16T07:10:16;100684.72;;;2.44;100.00
5413;BME280;2729;50.056;8.678;2023-03-16T07:12:43;100689.88;;;2.44;100.00
5413;BME280;2729;50.056;8.678;2023-03-16T07:15:10;100687.75;;;2.73;100.00
5413;BME280;2729;50.056;8.678;2023-03-16T07:17:37;100689.50;;;2.76;100.00
5413;BME280;2729;50.056;8.678;2023-03-16T07:20:05;100684.31;;;2.74;100.00
5413;BME280;2729;50.056;8.678;2023-03-16T07:22:36;100686.25;;;2.90;100.00
5413;BME280;2729;50.056;8.678;2023-03-16T07:25:03;100689.06;;;3.10;100.00
5413;BME280;2729;50.056;8.678;2023-03-16T07:27:29;100690.06;;;3.21;100.00
5413;BME280;2729;50.056;8.678;2023-03-16T07:29:57;100687.59;;;3.32;100.00
5413;BME280;2729;50.056;8.678;2023-03-16T07:32:25;100686.75;;;3.33;100.00
5413;BME280;2729;50.056;8.678;2023-03-16T07:34:51;100686.09;;;3.51;100.00
5413;BME280;2729;50.056;8.678;2023-03-16T07:37:17;100691.34;;;3.60;100.00
5413;BME280;2729;50.056;8.678;2023-03-16T07:39:44;100692.41;;;3.80;100.00
5413;BME280;2729;50.056;8.678;2023-03-16T07:42:16;100686.44;;;3.87;100.00
5413;BME280;2729;50.056;8.678;2023-03-16T07:44:54;100684.84;;;4.05;100.00
5413;BME280;2729;50.056;8.678;2023-03-16T07:47:20;100678.91;;;4.13;100.00
5413;BME280;2729;50.056;8.678;2023-03-16T07:49:47;100689.38;;;4.32;100.00
5413;BME280;2729;50.056;8.678;2023-03-16T07:52:13;100683.44;;;4.48;100.00
5413;BME280;2729;50.056;8.678;2023-03-16T07:54:43;100680.84;;;4.46;100.00
5413;BME280;2729;50.056;8.678;2023-03-16T07:57:10;100673.16;;;4.54;100.00
5413;BME280;2729;50.056;8.678;2023-03-16T07:59:42;100671.53;;;4.71;100.00
5413;BME280;2729;50.056;8.678;2023-03-16T08:02:15;100666.41;;;4.80;100.00
5413;BME280;2729;50.056;8.678;2023-03-16T08:04:42;100663.78;;;4.74;100.00
5413;BME280;2729;50.056;8.678;2023-03-16T08:07:09;100667.34;;;4.98;100.00
5413;BME280;2729;50.056;8.678;2023-03-16T08:09:48;100664.72;;;4.90;100.00
5413;BME280;2729;50.056;8.678;2023-03-16T08:12:20;100657.84;;;4.94;100.00
5413;BME280;2729;50.056;8.678;2023-03-16T08:14:46;100650.94;;;4.94;100.00
5413;BME280;2729;50.056;8.678;2023-03-16T08:17:17;100658.75;;;5.08;100.00
5413;BME280;2729;50.056;8.678;2023-03-16T08:19:44;100651.88;;;5.13;100.00
5413;BME280;2729;50.056;8.678;2023-03-16T08:22:11;100660.50;;;5.20;100.00
5413;BME280;2729;50.056;8.678;2023-03-16T08:24:41;100658.84;;;5.26;100.00
5413;BME280;2729;50.056;8.678;2023-03-16T08:27:09;100656.25;;;5.29;100.00
5413;BME280;2729;50.056;8.678;2023-03-16T08:29:39;100652.84;;;5.41;100.00
5413;BME280;2729;50.056;8.678;2023-03-16T08:32:06;100653.72;;;5.44;100.00
5413;BME280;2729;50.056;8.678;2023-03-16T08:34:38;100646.81;;;5.51;100.00
5413;BME280;2729;50.056;8.678;2023-03-16T08:37:06;100651.16;;;5.69;100.00
5413;BME280;2729;50.056;8.678;2023-03-16T08:39:32;100645.97;;;5.63;100.00
5413;BME280;2729;50.056;8.678;2023-03-16T08:42:03;100641.66;;;5.68;100.00
5413;BME280;2729;50.056;8.678;2023-03-16T08:44:37;100643.41;;;5.86;100.00
5413;BME280;2729;50.056;8.678;2023-03-16T08:47:03;100640.84;;;5.95;100.00
5413;BME280;2729;50.056;8.678;2023-03-16T08:49:30;100641.69;;;5.92;100.00
5413;BME280;2729;50.056;8.678;2023-03-16T08:52:08;100636.50;;;6.01;100.00
5413;BME280;2729;50.056;8.678;2023-03-16T08:54:35;100639.09;;;6.18;100.00
5413;BME280;2729;50.056;8.678;2023-03-16T08:57:01;100633.03;;;6.24;100.00
5413;BME280;2729;50.056;8.678;2023-03-16T08:59:27;100637.38;;;6.19;100.00
5413;BME280;2729;50.056;8.678;2023-03-16T09:01:54;100631.31;;;6.20;100.00
5413;BME280;2729;50.056;8.678;2023-03-16T09:04:19;100632.16;;;6.29;100.00
5413;BME280;2729;50.056;8.678;2023-03-16T09:06:47;100626.94;;;6.41;100.00
5413;BME280;2729;50.056;8.678;2023-03-16T09:09:16;100625.16;;;6.63;100.00
5413;BME280;2729;50.056;8.678;2023-03-16T09:11:42;100629.50;;;6.63;100.00
5413;BME280;2729;50.056;8.678;2023-03-16T09:14:10;100629.50;;;6.55;100.00
5413;BME280;2729;50.056;8.678;2023-03-16T09:16:38;100632.06;;;6.69;100.00
5413;BME280;2729;50.056;8.678;2023-03-16T09:19:04;100619.00;;;6.92;100.00
5413;BME280;2729;50.056;8.678;2023-03-16T09:21:32;100625.84;;;7.08;100.00
5413;BME280;2729;50.056;8.678;2023-03-16T09:24:00;100624.84;;;7.29;100.00
5413;BME280;2729;50.056;8.678;2023-03-16T09:26:26;100625.75;;;7.23;100.00
5413;BME280;2729;50.056;8.678;2023-03-16T09:28:53;100624.81;;;7.35;100.00
5413;BME280;2729;50.056;8.678;2023-03-16T09:31:19;100617.84;;;7.41;100.00
5413;BME280;2729;50.056;8.678;2023-03-16T09:33:46;100615.91;;;7.72;100.00
5413;BME280;2729;50.056;8.678;2023-03-16T09:36:13;100611.50;;;7.85;100.00
5413;BME280;2729;50.056;8.678;2023-03-16T09:38:40;100602.75;;;7.94;100.00
5413;BME280;2729;50.056;8.678;2023-03-16T09:44:33;100596.34;;;8.28;100.00
5413;BME280;2729;50.056;8.678;2023-03-16T09:47:03;100600.69;;;8.28;100.00
5413;BME280;2729;50.056;8.678;2023-03-16T09:49:37;100595.47;;;8.34;100.00
5413;BME280;2729;50.056;8.678;2023-03-16T09:52:59;100596.25;;;8.42;100.00
5413;BME280;2729;50.056;8.678;2023-03-16T09:57:59;100585.59;;;8.62;100.00
5413;BME280;2729;50.056;8.678;2023-03-16T10:00:29;100582.91;;;8.69;100.00
5413;BME280;2729;50.056;8.678;2023-03-16T10:05:30;100586.00;;;8.99;100.00
5413;BME280;2729;50.056;8.678;2023-03-16T10:14:01;100587.44;;;9.21;100.00
5413;BME280;2729;50.056;8.678;2023-03-16T10:16:34;100591.00;;;9.14;100.00
5413;BME280;2729;50.056;8.678;2023-03-16T10:19:10;100586.28;;;9.39;100.00
5413;BME280;2729;50.056;8.678;2023-03-16T10:21:40;100582.94;;;9.32;98.85
5413;BME280;2729;50.056;8.678;2023-03-16T10:24:20;100586.84;;;9.01;100.00
5413;BME280;2729;50.056;8.678;2023-03-16T10:26:55;100582.00;;;9.37;100.00
5413;BME280;2729;50.056;8.678;2023-03-16T10:29:27;100588.81;;;9.45;100.00
5413;BME280;2729;50.056;8.678;2023-03-16T10:32:01;100581.88;;;9.44;100.00
5413;BME280;2729;50.056;8.678;2023-03-16T10:34:31;100577.00;;;9.21;100.00
5413;BME280;2729;50.056;8.678;2023-03-16T10:36:57;100577.56;;;9.43;100.00
5413;BME280;2729;50.056;8.678;2023-03-16T10:39:23;100577.28;;;9.60;100.00
5413;BME280;2729;50.056;8.678;2023-03-16T10:41:56;100577.16;;;9.67;100.00
5413;BME280;2729;50.056;8.678;2023-03-16T10:44:26;100576.09;;;9.79;95.74
5413;BME280;2729;50.056;8.678;2023-03-16T10:47:04;100579.47;;;9.84;99.18
5413;BME280;2729;50.056;8.678;2023-03-16T10:49:38;100567.13;;;9.95;95.96
5413;BME280;2729;50.056;8.678;2023-03-16T10:52:15;100564.06;;;9.72;92.79
5413;BME280;2729;50.056;8.678;2023-03-16T10:54:49;100577.22;;;9.64;92.50
5413;BME280;2729;50.056;8.678;2023-03-16T10:59:59;100570.28;;;10.13;93.24
5413;BME280;2729;50.056;8.678;2023-03-16T11:02:33;100563.03;;;10.30;90.52
5413;BME280;2729;50.056;8.678;2023-03-16T11:05:10;100561.19;;;10.35;89.40
5413;BME280;2729;50.056;8.678;2023-03-16T11:07:37;100552.53;;;10.33;86.34
5413;BME280;2729;50.056;8.678;2023-03-16T11:10:14;100555.25;;;10.28;91.03
5413;BME280;2729;50.056;8.678;2023-03-16T11:12:49;100564.94;;;10.67;91.79
5413;BME280;2729;50.056;8.678;2023-03-16T11:15:15;100564.16;;;10.63;89.73
5413;BME280;2729;50.056;8.678;2023-03-16T11:17:44;100555.75;;;10.90;88.08
5413;BME280;2729;50.056;8.678;2023-03-16T11:20:17;100550.72;;;10.81;87.42
5413;BME280;2729;50.056;8.678;2023-03-16T11:22:46;100539.69;;;10.69;90.36
5413;BME280;2729;50.056;8.678;2023-03-16T11:25:23;100529.63;;;10.50;87.71
5413;BME280;2729;50.056;8.678;2023-03-16T11:28:08;100540.19;;;10.44;89.73
5413;BME280;2729;50.056;8.678;2023-03-16T11:31:02;100531.72;;;10.75;86.61
5413;BME280;2729;50.056;8.678;2023-03-16T11:33:33;100530.84;;;11.13;87.92
5413;BME280;2729;50.056;8.678;2023-03-16T11:38:44;100525.00;;;11.03;90.36
5413;BME280;2729;50.056;8.678;2023-03-16T11:41:27;100510.09;;;11.07;84.37
5413;BME280;2729;50.056;8.678;2023-03-16T11:52:48;100507.63;;;11.38;86.91
5413;BME280;2729;50.056;8.678;2023-03-16T11:55:53;100497.97;;;11.04;88.18
5413;BME280;2729;50.056;8.678;2023-03-16T11:59:07;100499.78;;;11.38;82.66
5413;BME280;2729;50.056;8.678;2023-03-16T12:05:03;100475.88;;;11.87;81.04
5413;BME280;2729;50.056;8.678;2023-03-16T12:12:57;100472.56;;;12.13;83.75
5413;BME280;2729;50.056;8.678;2023-03-16T12:15:31;100468.03;;;12.18;83.55
5413;BME280;2729;50.056;8.678;2023-03-16T12:18:04;100469.72;;;12.20;81.88
5413;BME280;2729;50.056;8.678;2023-03-16T12:20:49;100467.25;;;11.83;81.45
5413;BME280;2729;50.056;8.678;2023-03-16T12:23:28;100473.38;;;12.15;81.09
5413;BME280;2729;50.056;8.678;2023-03-16T12:25:57;100470.69;;;12.16;82.72
5413;BME280;2729;50.056;8.678;2023-03-16T12:28:27;100472.19;;;12.25;77.64
5413;BME280;2729;50.056;8.678;2023-03-16T12:31:10;100455.53;;;12.57;77.49
5413;BME280;2729;50.056;8.678;2023-03-16T12:33:46;100456.88;;;12.70;73.46
5413;BME280;2729;50.056;8.678;2023-03-16T12:36:56;100461.56;;;12.61;75.84
5413;BME280;2729;50.056;8.678;2023-03-16T12:39:39;100458.56;;;12.43;76.33
5413;BME280;2729;50.056;8.678;2023-03-16T12:42:37;100443.59;;;12.76;76.71
5413;BME280;2729;50.056;8.678;2023-03-16T12:48:15;100439.19;;;12.78;73.84
5413;BME280;2729;50.056;8.678;2023-03-16T12:50:53;100438.31;;;12.78;74.81
5413;BME280;2729;50.056;8.678;2023-03-16T12:56:08;100429.78;;;12.99;74.38
5413;BME280;2729;50.056;8.678;2023-03-16T12:58:35;100427.31;;;12.95;74.04
5413;BME280;2729;50.056;8.678;2023-03-16T13:01:07;100423.72;;;12.97;76.04
5413;BME280;2729;50.056;8.678;2023-03-16T13:03:34;100417.34;;;13.34;71.62
5413;BME280;2729;50.056;8.678;2023-03-16T13:06:01;100418.03;;;13.39;73.04
5413;BME280;2729;50.056;8.678;2023-03-16T13:08:43;100401.25;;;13.44;71.36
5413;BME280;2729;50.056;8.678;2023-03-16T13:11:11;100408.31;;;13.42;73.78
5413;BME280;2729;50.056;8.678;2023-03-16T13:16:32;100398.50;;;13.47;73.44
5413;BME280;2729;50.056;8.678;2023-03-16T13:21:44;100391.97;;;13.59;70.12
5413;BME280;2729;50.056;8.678;2023-03-16T13:26:50;100391.97;;;14.07;69.77
5413;BME280;2729;50.056;8.678;2023-03-16T13:29:27;100391.50;;;13.96;69.85
5413;BME280;2729;50.056;8.678;2023-03-16T13:32:07;100376.97;;;13.88;71.95
5413;BME280;2729;50.056;8.678;2023-03-16T13:34:47;100374.28;;;14.12;71.63
5413;BME280;2729;50.056;8.678;2023-03-16T13:37:17;100366.13;;;13.97;69.84
5413;BME280;2729;50.056;8.678;2023-03-16T13:39:55;100377.06;;;14.08;71.83
5413;BME280;2729;50.056;8.678;2023-03-16T13:42:23;100374.06;;;13.95;70.05
5413;BME280;2729;50.056;8.678;2023-03-16T13:44:54;100379.53;;;13.89;73.25
5413;BME280;2729;50.056;8.678;2023-03-16T13:47:21;100372.19;;;13.26;73.97
5413;BME280;2729;50.056;8.678;2023-03-16T13:49:53;100380.75;;;13.31;73.29
5413;BME280;2729;50.056;8.678;2023-03-16T13:52:28;100369.03;;;13.14;75.53
5413;BME280;2729;50.056;8.678;2023-03-16T13:54:56;100367.16;;;13.19;76.09
5413;BME280;2729;50.056;8.678;2023-03-16T13:57:28;100365.66;;;13.37;78.44
5413;BME280;2729;50.056;8.678;2023-03-16T14:02:56;100371.59;;;13.16;76.75
5413;BME280;2729;50.056;8.678;2023-03-16T14:05:32;100359.91;;;13.00;76.79
5413;BME280;2729;50.056;8.678;2023-03-16T14:08:00;100351.59;;;13.13;77.62
5413;BME280;2729;50.056;8.678;2023-03-16T14:10:36;100351.69;;;13.37;76.35
5413;BME280;2729;50.056;8.678;2023-03-16T14:13:39;100339.28;;;13.42;76.76
5413;BME280;2729;50.056;8.678;2023-03-16T14:16:12;100350.78;;;13.38;75.63
5413;BME280;2729;50.056;8.678;2023-03-16T14:18:42;100341.56;;;13.51;74.55
5413;BME280;2729;50.056;8.678;2023-03-16T14:21:13;100342.75;;;13.17;75.67
5413;BME280;2729;50.056;8.678;2023-03-16T14:23:45;100337.13;;;13.28;77.33
5413;BME280;2729;50.056;8.678;2023-03-16T14:26:15;100329.94;;;13.08;77.82
5413;BME280;2729;50.056;8.678;2023-03-16T14:29:05;100322.22;;;12.77;78.30
5413;BME280;2729;50.056;8.678;2023-03-16T14:31:36;100318.16;;;12.69;78.27
5413;BME280;2729;50.056;8.678;2023-03-16T14:34:17;100320.34;;;12.81;78.61
5413;BME280;2729;50.056;8.678;2023-03-16T14:36:44;100319.16;;;12.91;78.27